Pagina principale
METAR-TAF:

METAR-TAF

Aeroporti :

Hartness State Airport

Springfield, Vermont, Stati Uniti

latitudine: 43-20-33N, longitudine: 072-31-18W, altezza: 175 m

Osservazione

Il bollettino è stato emesso 10 minuti fa, alle 12:06 UTC
Vento calmo
Temperature -1°C
Umidità 100%
Pressione 1006 hPa
Visibilità: 3.2 km
Nuvoloso ad un'altezza di 3500 ft
Cielo coperto ad un'altezza di 4700 ft
neve debole, foschia

METAR: KVSF 171206Z AUTO 00000KT 2SM -SN BR BKN035 OVC047 M01/M01 A2971 RMK AO2 P0000 T10061006

Ora: 07:16 (12:16 UTC)


TAF: mancante

Osservazioni e previsioni meteorologiche di più di 4000 aeroporti (messaggi METAR e TAF).

Le stazioni disponibili sono rappresentate dai dischi gialli e rossi sulla carta.

Puntare il mouse per vedere il nome della stazione.

Clicca sopra per visualizzare le osservazioni e previsioni meteorologiche.

Per cambiare la mappa : fare clic sui pulsanti verdi con una croce nera per ingrandire, il pulsante verde con un trattino per diminuire, o sulla freccia verde per le mappe adiacenti.


METAR-TAF: